sensor_id;sensor_type;location;lat;lon;timestamp;P1;durP1;ratioP1;P2;durP2;ratioP2
30327;SDS011;17133;52.418;13.398;2022-10-16T00:00:36;4.50;;;3.33;;
30327;SDS011;17133;52.418;13.398;2022-10-16T00:03:03;3.30;;;2.85;;
30327;SDS011;17133;52.418;13.398;2022-10-16T00:05:29;3.67;;;3.05;;
30327;SDS011;17133;52.418;13.398;2022-10-16T00:07:55;3.53;;;3.10;;
30327;SDS011;17133;52.418;13.398;2022-10-16T00:10:21;3.55;;;3.03;;
30327;SDS011;17133;52.418;13.398;2022-10-16T00:12:47;3.60;;;3.20;;
30327;SDS011;17133;52.418;13.398;2022-10-16T00:15:13;5.40;;;3.50;;
30327;SDS011;17133;52.418;13.398;2022-10-16T00:17:39;3.70;;;3.08;;
30327;SDS011;17133;52.418;13.398;2022-10-16T00:20:05;3.58;;;2.83;;
30327;SDS011;17133;52.418;13.398;2022-10-16T00:22:32;6.13;;;3.15;;
30327;SDS011;17133;52.418;13.398;2022-10-16T00:24:58;2.97;;;2.67;;
30327;SDS011;17133;52.418;13.398;2022-10-16T00:27:24;3.65;;;2.85;;
30327;SDS011;17133;52.418;13.398;2022-10-16T00:29:50;4.30;;;3.00;;
30327;SDS011;17133;52.418;13.398;2022-10-16T00:32:17;4.28;;;3.40;;
30327;SDS011;17133;52.418;13.398;2022-10-16T00:34:43;3.42;;;3.03;;
30327;SDS011;17133;52.418;13.398;2022-10-16T00:37:09;3.25;;;2.75;;
30327;SDS011;17133;52.418;13.398;2022-10-16T00:39:35;2.97;;;2.67;;
30327;SDS011;17133;52.418;13.398;2022-10-16T00:42:01;3.90;;;3.35;;
30327;SDS011;17133;52.418;13.398;2022-10-16T00:47:12;4.50;;;3.10;;
30327;SDS011;17133;52.418;13.398;2022-10-16T00:49:40;4.35;;;3.13;;
30327;SDS011;17133;52.418;13.398;2022-10-16T00:52:06;4.50;;;2.83;;
30327;SDS011;17133;52.418;13.398;2022-10-16T00:54:32;3.60;;;2.85;;
30327;SDS011;17133;52.418;13.398;2022-10-16T00:57:03;3.30;;;2.78;;
30327;SDS011;17133;52.418;13.398;2022-10-16T00:59:34;4.38;;;3.00;;
30327;SDS011;17133;52.418;13.398;2022-10-16T01:02:01;2.97;;;2.67;;
30327;SDS011;17133;52.418;13.398;2022-10-16T01:04:29;3.30;;;2.80;;
30327;SDS011;17133;52.418;13.398;2022-10-16T01:09:35;3.22;;;2.53;;
30327;SDS011;17133;52.418;13.398;2022-10-16T01:12:09;2.95;;;2.65;;
30327;SDS011;17133;52.418;13.398;2022-10-16T01:17:12;5.68;;;3.00;;
30327;SDS011;17133;52.418;13.398;2022-10-16T01:22:07;3.30;;;3.00;;
30327;SDS011;17133;52.418;13.398;2022-10-16T01:24:41;4.50;;;2.60;;
30327;SDS011;17133;52.418;13.398;2022-10-16T01:37:16;3.67;;;2.95;;
30327;SDS011;17133;52.418;13.398;2022-10-16T01:39:45;4.45;;;2.88;;
30327;SDS011;17133;52.418;13.398;2022-10-16T01:42:15;3.00;;;2.60;;
30327;SDS011;17133;52.418;13.398;2022-10-16T01:44:42;3.17;;;2.47;;
30327;SDS011;17133;52.418;13.398;2022-10-16T01:47:09;2.95;;;2.30;;
30327;SDS011;17133;52.418;13.398;2022-10-16T01:49:36;3.30;;;2.78;;
30327;SDS011;17133;52.418;13.398;2022-10-16T01:52:05;2.92;;;2.58;;
30327;SDS011;17133;52.418;13.398;2022-10-16T01:54:32;3.17;;;2.63;;
30327;SDS011;17133;52.418;13.398;2022-10-16T01:57:00;3.65;;;2.80;;
30327;SDS011;17133;52.418;13.398;2022-10-16T01:59:28;4.80;;;2.92;;
30327;SDS011;17133;52.418;13.398;2022-10-16T02:01:56;5.50;;;3.35;;
30327;SDS011;17133;52.418;13.398;2022-10-16T02:04:26;4.22;;;3.00;;
30327;SDS011;17133;52.418;13.398;2022-10-16T02:06:53;3.35;;;2.70;;
30327;SDS011;17133;52.418;13.398;2022-10-16T02:09:19;3.60;;;3.15;;
30327;SDS011;17133;52.418;13.398;2022-10-16T02:11:45;4.32;;;2.60;;
30327;SDS011;17133;52.418;13.398;2022-10-16T02:14:14;3.97;;;2.80;;
30327;SDS011;17133;52.418;13.398;2022-10-16T02:16:41;3.65;;;2.92;;
30327;SDS011;17133;52.418;13.398;2022-10-16T02:19:07;4.45;;;3.08;;
30327;SDS011;17133;52.418;13.398;2022-10-16T02:24:18;5.25;;;2.75;;
30327;SDS011;17133;52.418;13.398;2022-10-16T02:26:55;3.75;;;3.05;;
30327;SDS011;17133;52.418;13.398;2022-10-16T02:29:24;3.08;;;2.33;;
30327;SDS011;17133;52.418;13.398;2022-10-16T02:31:53;3.97;;;2.80;;
30327;SDS011;17133;52.418;13.398;2022-10-16T02:34:19;3.70;;;2.35;;
30327;SDS011;17133;52.418;13.398;2022-10-16T02:36:47;3.53;;;2.15;;
30327;SDS011;17133;52.418;13.398;2022-10-16T02:39:14;3.30;;;2.60;;
30327;SDS011;17133;52.418;13.398;2022-10-16T02:41:40;4.25;;;2.75;;
30327;SDS011;17133;52.418;13.398;2022-10-16T02:44:06;3.50;;;2.70;;
30327;SDS011;17133;52.418;13.398;2022-10-16T02:46:32;3.53;;;2.45;;
30327;SDS011;17133;52.418;13.398;2022-10-16T02:48:58;3.28;;;2.58;;
30327;SDS011;17133;52.418;13.398;2022-10-16T02:51:24;3.92;;;2.42;;
30327;SDS011;17133;52.418;13.398;2022-10-16T02:53:50;2.50;;;2.13;;
30327;SDS011;17133;52.418;13.398;2022-10-16T02:56:16;3.70;;;2.40;;
30327;SDS011;17133;52.418;13.398;2022-10-16T02:58:42;2.60;;;2.33;;
30327;SDS011;17133;52.418;13.398;2022-10-16T03:01:08;4.15;;;2.78;;
30327;SDS011;17133;52.418;13.398;2022-10-16T03:03:34;3.22;;;2.60;;
30327;SDS011;17133;52.418;13.398;2022-10-16T03:06:00;4.32;;;2.85;;
30327;SDS011;17133;52.418;13.398;2022-10-16T03:08:26;2.92;;;2.10;;
30327;SDS011;17133;52.418;13.398;2022-10-16T03:10:52;3.55;;;2.50;;
30327;SDS011;17133;52.418;13.398;2022-10-16T03:13:18;6.68;;;2.47;;
30327;SDS011;17133;52.418;13.398;2022-10-16T03:15:45;2.85;;;2.63;;
30327;SDS011;17133;52.418;13.398;2022-10-16T03:18:11;3.15;;;2.53;;
30327;SDS011;17133;52.418;13.398;2022-10-16T03:20:37;4.72;;;2.42;;
30327;SDS011;17133;52.418;13.398;2022-10-16T03:23:03;3.42;;;2.28;;
30327;SDS011;17133;52.418;13.398;2022-10-16T03:25:29;2.58;;;2.15;;
30327;SDS011;17133;52.418;13.398;2022-10-16T03:27:55;2.65;;;2.00;;
30327;SDS011;17133;52.418;13.398;2022-10-16T03:30:21;4.10;;;2.30;;
30327;SDS011;17133;52.418;13.398;2022-10-16T03:32:47;3.10;;;2.58;;
30327;SDS011;17133;52.418;13.398;2022-10-16T03:35:13;3.08;;;2.08;;
30327;SDS011;17133;52.418;13.398;2022-10-16T03:37:39;2.65;;;2.22;;
30327;SDS011;17133;52.418;13.398;2022-10-16T03:40:05;3.35;;;2.65;;
30327;SDS011;17133;52.418;13.398;2022-10-16T03:42:31;2.80;;;2.40;;
30327;SDS011;17133;52.418;13.398;2022-10-16T03:44:57;3.53;;;2.20;;
30327;SDS011;17133;52.418;13.398;2022-10-16T03:47:23;3.10;;;2.47;;
30327;SDS011;17133;52.418;13.398;2022-10-16T03:49:49;3.25;;;2.50;;
30327;SDS011;17133;52.418;13.398;2022-10-16T03:52:16;4.30;;;2.53;;
30327;SDS011;17133;52.418;13.398;2022-10-16T03:54:42;3.50;;;3.05;;
30327;SDS011;17133;52.418;13.398;2022-10-16T03:57:08;3.03;;;2.63;;
30327;SDS011;17133;52.418;13.398;2022-10-16T03:59:34;2.60;;;2.38;;
30327;SDS011;17133;52.418;13.398;2022-10-16T04:01:59;4.50;;;2.70;;
30327;SDS011;17133;52.418;13.398;2022-10-16T04:04:25;2.38;;;2.17;;
30327;SDS011;17133;52.418;13.398;2022-10-16T04:06:51;3.90;;;2.58;;
30327;SDS011;17133;52.418;13.398;2022-10-16T04:09:17;5.63;;;2.97;;
30327;SDS011;17133;52.418;13.398;2022-10-16T04:11:43;3.35;;;2.53;;
30327;SDS011;17133;52.418;13.398;2022-10-16T04:14:09;5.10;;;2.83;;
30327;SDS011;17133;52.418;13.398;2022-10-16T04:16:35;4.63;;;3.13;;
30327;SDS011;17133;52.418;13.398;2022-10-16T04:19:01;3.85;;;2.65;;
30327;SDS011;17133;52.418;13.398;2022-10-16T04:21:27;4.50;;;2.90;;
30327;SDS011;17133;52.418;13.398;2022-10-16T04:23:53;3.70;;;2.55;;
30327;SDS011;17133;52.418;13.398;2022-10-16T04:26:19;3.42;;;2.58;;
30327;SDS011;17133;52.418;13.398;2022-10-16T04:28:45;2.63;;;2.20;;
30327;SDS011;17133;52.418;13.398;2022-10-16T04:31:11;3.22;;;2.60;;
30327;SDS011;17133;52.418;13.398;2022-10-16T04:33:37;2.92;;;2.63;;
30327;SDS011;17133;52.418;13.398;2022-10-16T04:36:03;3.60;;;2.63;;
30327;SDS011;17133;52.418;13.398;2022-10-16T04:38:29;3.30;;;2.95;;
30327;SDS011;17133;52.418;13.398;2022-10-16T04:40:55;2.97;;;2.60;;
30327;SDS011;17133;52.418;13.398;2022-10-16T04:43:22;3.80;;;2.80;;
30327;SDS011;17133;52.418;13.398;2022-10-16T04:45:48;3.40;;;2.75;;
30327;SDS011;17133;52.418;13.398;2022-10-16T04:48:15;3.25;;;2.63;;
30327;SDS011;17133;52.418;13.398;2022-10-16T04:50:41;2.72;;;2.50;;
30327;SDS011;17133;52.418;13.398;2022-10-16T04:53:07;2.67;;;2.47;;
30327;SDS011;17133;52.418;13.398;2022-10-16T04:55:34;3.72;;;2.70;;
30327;SDS011;17133;52.418;13.398;2022-10-16T04:58:00;3.15;;;2.85;;
30327;SDS011;17133;52.418;13.398;2022-10-16T05:00:26;3.40;;;3.08;;
30327;SDS011;17133;52.418;13.398;2022-10-16T05:02:52;3.13;;;2.83;;
30327;SDS011;17133;52.418;13.398;2022-10-16T05:05:18;4.45;;;2.85;;
30327;SDS011;17133;52.418;13.398;2022-10-16T05:07:44;3.00;;;2.70;;
30327;SDS011;17133;52.418;13.398;2022-10-16T05:10:10;3.15;;;2.50;;
30327;SDS011;17133;52.418;13.398;2022-10-16T05:12:36;3.00;;;2.67;;
30327;SDS011;17133;52.418;13.398;2022-10-16T05:15:03;4.10;;;2.60;;
30327;SDS011;17133;52.418;13.398;2022-10-16T05:17:29;3.28;;;2.97;;
30327;SDS011;17133;52.418;13.398;2022-10-16T05:19:55;4.32;;;2.83;;
30327;SDS011;17133;52.418;13.398;2022-10-16T05:22:21;3.60;;;2.88;;
30327;SDS011;17133;52.418;13.398;2022-10-16T05:24:47;3.72;;;3.00;;
30327;SDS011;17133;52.418;13.398;2022-10-16T05:27:13;4.20;;;2.75;;
30327;SDS011;17133;52.418;13.398;2022-10-16T05:29:44;3.72;;;2.92;;
30327;SDS011;17133;52.418;13.398;2022-10-16T05:32:10;4.53;;;2.95;;
30327;SDS011;17133;52.418;13.398;2022-10-16T05:34:36;3.13;;;2.72;;
30327;SDS011;17133;52.418;13.398;2022-10-16T05:37:02;4.47;;;3.05;;
30327;SDS011;17133;52.418;13.398;2022-10-16T05:39:28;3.88;;;3.20;;
30327;SDS011;17133;52.418;13.398;2022-10-16T05:41:54;5.47;;;3.30;;
30327;SDS011;17133;52.418;13.398;2022-10-16T05:44:20;3.22;;;2.80;;
30327;SDS011;17133;52.418;13.398;2022-10-16T05:46:46;3.55;;;3.05;;
30327;SDS011;17133;52.418;13.398;2022-10-16T05:49:12;3.03;;;2.50;;
30327;SDS011;17133;52.418;13.398;2022-10-16T05:51:38;3.22;;;2.92;;
30327;SDS011;17133;52.418;13.398;2022-10-16T05:54:04;3.08;;;2.78;;
30327;SDS011;17133;52.418;13.398;2022-10-16T05:56:30;3.90;;;3.22;;
30327;SDS011;17133;52.418;13.398;2022-10-16T05:58:56;3.30;;;3.00;;
30327;SDS011;17133;52.418;13.398;2022-10-16T06:01:22;4.93;;;2.90;;
30327;SDS011;17133;52.418;13.398;2022-10-16T06:03:49;2.95;;;2.47;;
30327;SDS011;17133;52.418;13.398;2022-10-16T06:06:20;3.03;;;2.30;;
30327;SDS011;17133;52.418;13.398;2022-10-16T06:08:46;3.28;;;2.38;;
30327;SDS011;17133;52.418;13.398;2022-10-16T06:11:23;3.47;;;2.92;;
30327;SDS011;17133;52.418;13.398;2022-10-16T06:13:50;3.40;;;2.90;;
30327;SDS011;17133;52.418;13.398;2022-10-16T06:16:16;3.17;;;2.70;;
30327;SDS011;17133;52.418;13.398;2022-10-16T06:18:42;3.10;;;2.75;;
30327;SDS011;17133;52.418;13.398;2022-10-16T06:21:09;3.08;;;2.78;;
30327;SDS011;17133;52.418;13.398;2022-10-16T06:23:35;3.58;;;2.72;;
30327;SDS011;17133;52.418;13.398;2022-10-16T06:26:05;4.90;;;2.50;;
30327;SDS011;17133;52.418;13.398;2022-10-16T06:28:31;3.05;;;2.42;;
30327;SDS011;17133;52.418;13.398;2022-10-16T06:31:02;2.90;;;2.45;;
30327;SDS011;17133;52.418;13.398;2022-10-16T06:33:28;3.13;;;2.55;;
30327;SDS011;17133;52.418;13.398;2022-10-16T06:36:05;4.15;;;3.00;;
30327;SDS011;17133;52.418;13.398;2022-10-16T06:38:31;2.80;;;2.20;;
30327;SDS011;17133;52.418;13.398;2022-10-16T06:40:58;2.83;;;2.55;;
30327;SDS011;17133;52.418;13.398;2022-10-16T06:43:24;2.75;;;2.30;;
30327;SDS011;17133;52.418;13.398;2022-10-16T06:45:54;3.08;;;2.60;;
30327;SDS011;17133;52.418;13.398;2022-10-16T06:48:20;5.03;;;3.00;;
30327;SDS011;17133;52.418;13.398;2022-10-16T06:53:22;3.05;;;2.47;;
30327;SDS011;17133;52.418;13.398;2022-10-16T06:55:48;3.00;;;2.35;;
30327;SDS011;17133;52.418;13.398;2022-10-16T06:58:14;2.70;;;2.35;;
30327;SDS011;17133;52.418;13.398;2022-10-16T07:00:40;3.72;;;2.90;;
30327;SDS011;17133;52.418;13.398;2022-10-16T07:03:06;2.70;;;2.28;;
30327;SDS011;17133;52.418;13.398;2022-10-16T07:05:36;2.95;;;2.55;;
30327;SDS011;17133;52.418;13.398;2022-10-16T07:08:02;4.88;;;2.97;;
30327;SDS011;17133;52.418;13.398;2022-10-16T07:10:30;3.67;;;2.50;;
30327;SDS011;17133;52.418;13.398;2022-10-16T07:12:56;4.00;;;2.97;;
30327;SDS011;17133;52.418;13.398;2022-10-16T07:15:22;4.20;;;2.90;;
30327;SDS011;17133;52.418;13.398;2022-10-16T07:17:48;4.90;;;2.38;;
30327;SDS011;17133;52.418;13.398;2022-10-16T07:20:14;4.10;;;2.67;;
30327;SDS011;17133;52.418;13.398;2022-10-16T07:22:39;3.60;;;2.45;;
30327;SDS011;17133;52.418;13.398;2022-10-16T07:25:06;3.15;;;2.33;;
30327;SDS011;17133;52.418;13.398;2022-10-16T07:27:32;2.80;;;2.30;;
30327;SDS011;17133;52.418;13.398;2022-10-16T07:29:58;3.00;;;2.70;;
30327;SDS011;17133;52.418;13.398;2022-10-16T07:32:24;2.60;;;2.17;;
30327;SDS011;17133;52.418;13.398;2022-10-16T07:34:50;4.22;;;2.70;;
30327;SDS011;17133;52.418;13.398;2022-10-16T07:37:16;4.10;;;2.40;;
30327;SDS011;17133;52.418;13.398;2022-10-16T07:39:42;2.70;;;2.15;;
30327;SDS011;17133;52.418;13.398;2022-10-16T07:42:08;2.20;;;2.00;;
30327;SDS011;17133;52.418;13.398;2022-10-16T07:44:34;2.63;;;2.22;;
30327;SDS011;17133;52.418;13.398;2022-10-16T07:47:00;3.35;;;2.05;;
30327;SDS011;17133;52.418;13.398;2022-10-16T07:49:26;3.63;;;1.95;;
30327;SDS011;17133;52.418;13.398;2022-10-16T07:51:52;2.42;;;1.60;;
30327;SDS011;17133;52.418;13.398;2022-10-16T07:54:18;2.17;;;1.70;;
30327;SDS011;17133;52.418;13.398;2022-10-16T07:56:44;2.38;;;2.00;;
30327;SDS011;17133;52.418;13.398;2022-10-16T07:59:10;2.08;;;1.48;;
30327;SDS011;17133;52.418;13.398;2022-10-16T08:01:36;3.45;;;1.60;;
30327;SDS011;17133;52.418;13.398;2022-10-16T08:04:03;2.75;;;1.70;;
30327;SDS011;17133;52.418;13.398;2022-10-16T08:06:28;2.03;;;1.58;;
30327;SDS011;17133;52.418;13.398;2022-10-16T08:08:55;2.13;;;1.60;;
30327;SDS011;17133;52.418;13.398;2022-10-16T08:11:21;2.88;;;2.00;;
30327;SDS011;17133;52.418;13.398;2022-10-16T08:13:48;2.30;;;1.77;;
30327;SDS011;17133;52.418;13.398;2022-10-16T08:16:14;2.35;;;1.77;;
30327;SDS011;17133;52.418;13.398;2022-10-16T08:18:40;2.53;;;1.50;;
30327;SDS011;17133;52.418;13.398;2022-10-16T08:21:08;3.85;;;1.70;;
30327;SDS011;17133;52.418;13.398;2022-10-16T08:23:37;1.70;;;1.42;;
30327;SDS011;17133;52.418;13.398;2022-10-16T08:26:05;1.75;;;1.50;;
30327;SDS011;17133;52.418;13.398;2022-10-16T08:28:31;3.45;;;1.60;;
30327;SDS011;17133;52.418;13.398;2022-10-16T08:31:04;1.90;;;1.60;;
30327;SDS011;17133;52.418;13.398;2022-10-16T08:33:30;2.42;;;1.75;;
30327;SDS011;17133;52.418;13.398;2022-10-16T08:35:56;3.38;;;1.70;;
30327;SDS011;17133;52.418;13.398;2022-10-16T08:38:22;3.78;;;1.67;;
30327;SDS011;17133;52.418;13.398;2022-10-16T08:40:48;4.78;;;1.40;;
30327;SDS011;17133;52.418;13.398;2022-10-16T08:45:49;1.75;;;1.38;;
30327;SDS011;17133;52.418;13.398;2022-10-16T08:48:22;2.97;;;1.58;;
30327;SDS011;17133;52.418;13.398;2022-10-16T08:50:51;3.70;;;1.20;;
30327;SDS011;17133;52.418;13.398;2022-10-16T08:53:19;3.08;;;1.45;;
30327;SDS011;17133;52.418;13.398;2022-10-16T08:55:51;3.75;;;1.38;;
30327;SDS011;17133;52.418;13.398;2022-10-16T08:58:18;2.75;;;1.40;;
30327;SDS011;17133;52.418;13.398;2022-10-16T09:00:55;1.67;;;1.17;;
30327;SDS011;17133;52.418;13.398;2022-10-16T09:03:23;2.60;;;1.38;;
30327;SDS011;17133;52.418;13.398;2022-10-16T09:08:29;2.58;;;1.45;;
30327;SDS011;17133;52.418;13.398;2022-10-16T09:11:02;2.30;;;1.45;;
30327;SDS011;17133;52.418;13.398;2022-10-16T09:13:43;3.67;;;1.20;;
30327;SDS011;17133;52.418;13.398;2022-10-16T09:23:49;1.90;;;1.30;;
30327;SDS011;17133;52.418;13.398;2022-10-16T09:26:16;1.30;;;1.00;;
30327;SDS011;17133;52.418;13.398;2022-10-16T09:28:43;3.67;;;1.05;;
30327;SDS011;17133;52.418;13.398;2022-10-16T09:31:12;3.10;;;1.65;;
30327;SDS011;17133;52.418;13.398;2022-10-16T09:33:39;1.92;;;1.30;;
30327;SDS011;17133;52.418;13.398;2022-10-16T09:36:06;1.55;;;1.15;;
30327;SDS011;17133;52.418;13.398;2022-10-16T09:38:33;3.35;;;1.13;;
30327;SDS011;17133;52.418;13.398;2022-10-16T09:41:01;2.28;;;1.30;;
30327;SDS011;17133;52.418;13.398;2022-10-16T09:46:04;2.50;;;1.45;;
30327;SDS011;17133;52.418;13.398;2022-10-16T09:48:35;2.40;;;1.40;;
30327;SDS011;17133;52.418;13.398;2022-10-16T09:51:03;2.42;;;1.30;;
30327;SDS011;17133;52.418;13.398;2022-10-16T09:53:40;3.85;;;1.30;;
30327;SDS011;17133;52.418;13.398;2022-10-16T09:56:06;3.17;;;1.50;;
30327;SDS011;17133;52.418;13.398;2022-10-16T09:58:32;3.53;;;1.38;;
30327;SDS011;17133;52.418;13.398;2022-10-16T10:00:58;3.70;;;1.30;;
30327;SDS011;17133;52.418;13.398;2022-10-16T10:03:38;1.92;;;1.00;;
30327;SDS011;17133;52.418;13.398;2022-10-16T10:08:53;1.85;;;1.30;;
30327;SDS011;17133;52.418;13.398;2022-10-16T10:11:35;3.05;;;1.30;;
30327;SDS011;17133;52.418;13.398;2022-10-16T10:14:05;1.65;;;1.20;;
30327;SDS011;17133;52.418;13.398;2022-10-16T10:16:31;1.60;;;1.10;;
30327;SDS011;17133;52.418;13.398;2022-10-16T10:18:58;2.63;;;1.08;;
30327;SDS011;17133;52.418;13.398;2022-10-16T10:21:24;2.63;;;1.30;;
30327;SDS011;17133;52.418;13.398;2022-10-16T10:23:56;3.10;;;1.20;;
30327;SDS011;17133;52.418;13.398;2022-10-16T10:26:24;2.20;;;1.27;;
30327;SDS011;17133;52.418;13.398;2022-10-16T10:28:55;1.38;;;1.10;;
30327;SDS011;17133;52.418;13.398;2022-10-16T10:31:32;3.13;;;1.40;;
30327;SDS011;17133;52.418;13.398;2022-10-16T10:36:51;1.95;;;0.90;;
30327;SDS011;17133;52.418;13.398;2022-10-16T10:39:24;3.42;;;0.88;;
30327;SDS011;17133;52.418;13.398;2022-10-16T10:44:30;3.53;;;1.23;;
30327;SDS011;17133;52.418;13.398;2022-10-16T10:46:57;4.03;;;1.10;;
30327;SDS011;17133;52.418;13.398;2022-10-16T10:54:38;1.83;;;0.88;;
30327;SDS011;17133;52.418;13.398;2022-10-16T10:57:10;1.77;;;0.85;;
30327;SDS011;17133;52.418;13.398;2022-10-16T11:02:46;1.48;;;0.93;;
30327;SDS011;17133;52.418;13.398;2022-10-16T11:07:34;3.28;;;0.80;;
30327;SDS011;17133;52.418;13.398;2022-10-16T11:10:03;1.27;;;0.80;;
30327;SDS011;17133;52.418;13.398;2022-10-16T11:12:38;1.15;;;0.70;;
30327;SDS011;17133;52.418;13.398;2022-10-16T11:17:39;3.08;;;1.00;;
30327;SDS011;17133;52.418;13.398;2022-10-16T11:22:37;1.35;;;0.70;;
30327;SDS011;17133;52.418;13.398;2022-10-16T11:25:06;1.67;;;0.77;;
30327;SDS011;17133;52.418;13.398;2022-10-16T11:27:45;1.63;;;0.90;;
30327;SDS011;17133;52.418;13.398;2022-10-16T11:30:14;3.13;;;0.70;;
30327;SDS011;17133;52.418;13.398;2022-10-16T11:32:48;2.70;;;0.68;;
30327;SDS011;17133;52.418;13.398;2022-10-16T11:35:38;1.70;;;0.75;;
30327;SDS011;17133;52.418;13.398;2022-10-16T11:38:02;1.98;;;0.90;;
30327;SDS011;17133;52.418;13.398;2022-10-16T11:40:31;2.70;;;1.00;;
30327;SDS011;17133;52.418;13.398;2022-10-16T11:43:02;1.95;;;0.63;;
30327;SDS011;17133;52.418;13.398;2022-10-16T11:45:36;1.17;;;0.73;;
30327;SDS011;17133;52.418;13.398;2022-10-16T11:48:07;1.60;;;0.65;;
30327;SDS011;17133;52.418;13.398;2022-10-16T11:53:11;1.20;;;0.68;;
30327;SDS011;17133;52.418;13.398;2022-10-16T11:55:40;1.48;;;0.73;;
30327;SDS011;17133;52.418;13.398;2022-10-16T11:58:07;0.52;;;0.43;;
30327;SDS011;17133;52.418;13.398;2022-10-16T12:00:44;1.75;;;0.60;;
30327;SDS011;17133;52.418;13.398;2022-10-16T12:05:50;1.65;;;0.90;;
30327;SDS011;17133;52.418;13.398;2022-10-16T12:08:18;1.00;;;0.73;;
30327;SDS011;17133;52.418;13.398;2022-10-16T12:10:45;2.35;;;0.82;;
30327;SDS011;17133;52.418;13.398;2022-10-16T12:18:31;1.98;;;0.70;;
30327;SDS011;17133;52.418;13.398;2022-10-16T12:20:57;1.67;;;0.80;;
30327;SDS011;17133;52.418;13.398;2022-10-16T12:23:25;7.22;;;1.02;;
30327;SDS011;17133;52.418;13.398;2022-10-16T12:25:54;1.25;;;0.63;;
30327;SDS011;17133;52.418;13.398;2022-10-16T12:28:22;1.30;;;0.80;;
30327;SDS011;17133;52.418;13.398;2022-10-16T12:30:52;9.15;;;2.42;;
30327;SDS011;17133;52.418;13.398;2022-10-16T12:33:23;2.75;;;0.85;;
30327;SDS011;17133;52.418;13.398;2022-10-16T12:35:49;2.55;;;0.55;;
30327;SDS011;17133;52.418;13.398;2022-10-16T12:38:17;1.27;;;0.55;;
30327;SDS011;17133;52.418;13.398;2022-10-16T12:40:45;1.85;;;0.90;;
30327;SDS011;17133;52.418;13.398;2022-10-16T12:43:26;1.10;;;0.70;;
30327;SDS011;17133;52.418;13.398;2022-10-16T12:45:59;2.20;;;0.80;;
30327;SDS011;17133;52.418;13.398;2022-10-16T12:48:26;1.88;;;0.70;;
30327;SDS011;17133;52.418;13.398;2022-10-16T12:50:53;1.95;;;0.70;;
30327;SDS011;17133;52.418;13.398;2022-10-16T12:53:20;1.02;;;0.50;;
30327;SDS011;17133;52.418;13.398;2022-10-16T12:58:15;1.58;;;0.60;;
30327;SDS011;17133;52.418;13.398;2022-10-16T13:00:53;2.95;;;0.52;;
30327;SDS011;17133;52.418;13.398;2022-10-16T13:03:32;1.23;;;0.70;;
30327;SDS011;17133;52.418;13.398;2022-10-16T13:09:13;1.90;;;0.80;;
30327;SDS011;17133;52.418;13.398;2022-10-16T13:11:59;0.90;;;0.50;;
30327;SDS011;17133;52.418;13.398;2022-10-16T13:22:24;0.95;;;0.70;;
30327;SDS011;17133;52.418;13.398;2022-10-16T13:30:25;0.85;;;0.68;;
30327;SDS011;17133;52.418;13.398;2022-10-16T13:35:56;1.40;;;0.70;;
30327;SDS011;17133;52.418;13.398;2022-10-16T13:38:23;1.13;;;0.60;;
30327;SDS011;17133;52.418;13.398;2022-10-16T13:41:00;2.45;;;0.70;;
30327;SDS011;17133;52.418;13.398;2022-10-16T13:43:37;2.42;;;0.70;;
30327;SDS011;17133;52.418;13.398;2022-10-16T13:48:39;2.42;;;0.70;;
30327;SDS011;17133;52.418;13.398;2022-10-16T13:53:36;1.02;;;0.70;;
30327;SDS011;17133;52.418;13.398;2022-10-16T13:56:03;1.00;;;0.80;;
30327;SDS011;17133;52.418;13.398;2022-10-16T13:58:30;1.30;;;0.60;;
30327;SDS011;17133;52.418;13.398;2022-10-16T14:01:00;1.65;;;0.55;;
30327;SDS011;17133;52.418;13.398;2022-10-16T14:03:28;2.33;;;0.85;;
30327;SDS011;17133;52.418;13.398;2022-10-16T14:05:56;2.92;;;0.80;;
30327;SDS011;17133;52.418;13.398;2022-10-16T14:08:25;3.13;;;0.90;;
30327;SDS011;17133;52.418;13.398;2022-10-16T14:10:54;2.42;;;0.65;;
30327;SDS011;17133;52.418;13.398;2022-10-16T14:13:31;1.73;;;0.98;;
30327;SDS011;17133;52.418;13.398;2022-10-16T14:16:02;0.80;;;0.57;;
30327;SDS011;17133;52.418;13.398;2022-10-16T14:18:32;0.95;;;0.60;;
30327;SDS011;17133;52.418;13.398;2022-10-16T14:21:05;3.90;;;0.90;;
30327;SDS011;17133;52.418;13.398;2022-10-16T14:23:34;2.05;;;0.90;;
30327;SDS011;17133;52.418;13.398;2022-10-16T14:26:06;0.70;;;0.60;;
30327;SDS011;17133;52.418;13.398;2022-10-16T14:28:35;1.10;;;0.70;;
30327;SDS011;17133;52.418;13.398;2022-10-16T14:31:13;2.63;;;0.70;;
30327;SDS011;17133;52.418;13.398;2022-10-16T14:33:53;2.30;;;0.80;;
30327;SDS011;17133;52.418;13.398;2022-10-16T14:36:19;1.15;;;0.68;;
30327;SDS011;17133;52.418;13.398;2022-10-16T14:39:04;5.68;;;1.00;;
30327;SDS011;17133;52.418;13.398;2022-10-16T14:41:45;2.60;;;1.08;;
30327;SDS011;17133;52.418;13.398;2022-10-16T14:44:13;2.83;;;0.80;;
30327;SDS011;17133;52.418;13.398;2022-10-16T14:46:40;1.42;;;0.82;;
30327;SDS011;17133;52.418;13.398;2022-10-16T14:51:36;1.90;;;0.85;;
30327;SDS011;17133;52.418;13.398;2022-10-16T14:54:02;1.85;;;0.82;;
30327;SDS011;17133;52.418;13.398;2022-10-16T14:56:29;0.95;;;0.60;;
30327;SDS011;17133;52.418;13.398;2022-10-16T14:58:58;1.48;;;0.82;;
30327;SDS011;17133;52.418;13.398;2022-10-16T15:01:25;1.45;;;0.70;;
30327;SDS011;17133;52.418;13.398;2022-10-16T15:03:51;2.28;;;0.80;;
30327;SDS011;17133;52.418;13.398;2022-10-16T15:06:19;2.55;;;0.65;;
30327;SDS011;17133;52.418;13.398;2022-10-16T15:08:45;1.45;;;0.85;;
30327;SDS011;17133;52.418;13.398;2022-10-16T15:11:12;2.17;;;0.73;;
30327;SDS011;17133;52.418;13.398;2022-10-16T15:13:42;0.80;;;0.60;;
30327;SDS011;17133;52.418;13.398;2022-10-16T15:16:11;1.05;;;0.75;;
30327;SDS011;17133;52.418;13.398;2022-10-16T15:18:39;1.52;;;0.75;;
30327;SDS011;17133;52.418;13.398;2022-10-16T15:21:04;1.60;;;0.70;;
30327;SDS011;17133;52.418;13.398;2022-10-16T15:23:30;1.10;;;0.80;;
30327;SDS011;17133;52.418;13.398;2022-10-16T15:25:56;1.70;;;0.70;;
30327;SDS011;17133;52.418;13.398;2022-10-16T15:28:22;1.45;;;0.85;;
30327;SDS011;17133;52.418;13.398;2022-10-16T15:30:49;1.50;;;0.70;;
30327;SDS011;17133;52.418;13.398;2022-10-16T15:33:18;1.02;;;0.70;;
30327;SDS011;17133;52.418;13.398;2022-10-16T15:35:53;1.23;;;0.90;;
30327;SDS011;17133;52.418;13.398;2022-10-16T15:38:20;1.75;;;0.80;;
30327;SDS011;17133;52.418;13.398;2022-10-16T15:40:47;2.78;;;1.00;;
30327;SDS011;17133;52.418;13.398;2022-10-16T15:43:13;1.83;;;0.80;;
30327;SDS011;17133;52.418;13.398;2022-10-16T15:45:39;1.30;;;0.80;;
30327;SDS011;17133;52.418;13.398;2022-10-16T15:48:05;3.03;;;1.00;;
30327;SDS011;17133;52.418;13.398;2022-10-16T15:50:31;2.35;;;1.40;;
30327;SDS011;17133;52.418;13.398;2022-10-16T15:52:57;1.63;;;0.80;;
30327;SDS011;17133;52.418;13.398;2022-10-16T15:55:23;2.05;;;0.98;;
30327;SDS011;17133;52.418;13.398;2022-10-16T15:57:49;1.40;;;0.80;;
30327;SDS011;17133;52.418;13.398;2022-10-16T16:00:16;1.15;;;0.98;;
30327;SDS011;17133;52.418;13.398;2022-10-16T16:02:49;2.92;;;0.95;;
30327;SDS011;17133;52.418;13.398;2022-10-16T16:05:16;1.55;;;0.90;;
30327;SDS011;17133;52.418;13.398;2022-10-16T16:07:42;1.30;;;0.90;;
30327;SDS011;17133;52.418;13.398;2022-10-16T16:10:09;1.55;;;0.90;;
30327;SDS011;17133;52.418;13.398;2022-10-16T16:12:36;1.25;;;0.70;;
30327;SDS011;17133;52.418;13.398;2022-10-16T16:15:02;1.52;;;0.88;;
30327;SDS011;17133;52.418;13.398;2022-10-16T16:17:32;1.35;;;0.98;;
30327;SDS011;17133;52.418;13.398;2022-10-16T16:19:59;2.40;;;1.20;;
30327;SDS011;17133;52.418;13.398;2022-10-16T16:22:25;1.65;;;1.10;;